Atascocita, Texas
Current Conditions -  °F | °C
As of 11:53 PM on Friday 19 Dec 2014 (Local Time) from KIAH Reporting Station
Overcast Overcast  
Wind Chill: 52°   Ceiling: 600
Heat Index: 52°   Visibility: 10mi
Dew Point: 50°   Wind: 9mph
Humidity: 93%   Direction: 360°N
Pressure: 30.14"   Gusts: NA
Location:  29.9871°N, 95.1826°W
Report Text: KIAH 200553Z 36008KT 10SM OVC006 11/10 A3014 RMK AO2 SLP206 T01110100 10128 20111 401500111 51008
Loading
Personal Weather Stations






























Interactive Weather Map New forecast layout! Learn more

10-Day Weather Forecast

Advertisements
Track Severe Weather on mobile